Chrisopigi Lady — A8EQ9 — position and weather

sailwx.info

Track history (hours):
 
Tides and Currents Weather Stations Pressure Air Temp Water Temp Dewpoint Dewpoint Depression Visibility Wind Speed Wind Dir Waves Ship Positions

Chrisopigi Lady

Last reported at 2016-Jul-28 03:32 UTC. Time now 2016-Jul-30 03:32 UTC.
Position S 27°02' E 153°56'.

Length 228 m; draft 8 m.

Type: Ship (hazmat cat A). MMSI: 636012314.

Date/timePositionNaut miles runAvg speedWind from/ knotsBaromVisibWave heightAir tempDewpointWater temp
2016-Jul-28 03:32S 27°02' E 153°56'32710.9
2016-Jul-26 21:33S 32°23' E 152°49'1312.8
2016-Jul-26 20:33S 32°35' E 152°42'1312.6
2016-Jul-26 19:33S 32°45' E 152°33'1313.0
2016-Jul-26 18:33S 32°55' E 152°23'1313.4
2016-Jul-26 17:33S 33°06' E 152°14'  
2016-Jul-21 05:24S 33°10' E 152°10'1112.6
2016-Jul-21 04:33S 33°01' E 152°18'1212.4
2016-Jul-21 03:33S 32°51' E 152°27'1212.4
2016-Jul-21 02:34S 32°42' E 152°36'  
Track history (hours):
 
Tides and Currents Weather Stations Pressure Air Temp Water Temp Dewpoint Dewpoint Depression Visibility Wind Speed Wind Dir Waves Ship Positions

Chrisopigi Lady

Last reported at 2016-Jul-28 03:32 UTC. Time now 2016-Jul-30 03:32 UTC.
Position S 27°02' E 153°56'.

Length 228 m; draft 8 m.

Type: Ship (hazmat cat A). MMSI: 636012314.

Date/timePositionNaut miles runAvg speedWind from/ knotsBaromVisibWave heightAir tempDewpointWater temp
2016-Jul-28 03:32S 27°02' E 153°56'32710.9
2016-Jul-26 21:33S 32°23' E 152°49'1312.8
2016-Jul-26 20:33S 32°35' E 152°42'1312.6
2016-Jul-26 19:33S 32°45' E 152°33'1313.0
2016-Jul-26 18:33S 32°55' E 152°23'1313.4
2016-Jul-26 17:33S 33°06' E 152°14'  
2016-Jul-21 05:24S 33°10' E 152°10'1112.6
2016-Jul-21 04:33S 33°01' E 152°18'1212.4
2016-Jul-21 03:33S 32°51' E 152°27'1212.4
2016-Jul-21 02:34S 32°42' E 152°36'  

Dump ship's entire track history